createdAt,value
2023-02-22T00:00:59.873Z,202.18
2023-02-22T00:03:32.477Z,200.40
2023-02-22T00:06:07.033Z,146.70
2023-02-22T00:08:36.784Z,187.70
2023-02-22T00:11:10.302Z,203.55
2023-02-22T00:13:38.589Z,195.52
2023-02-22T00:16:06.944Z,205.90
2023-02-22T00:18:34.462Z,190.00
2023-02-22T00:21:02.032Z,204.00
2023-02-22T00:23:31.862Z,206.15
2023-02-22T00:26:00.387Z,199.52
2023-02-22T00:28:28.163Z,200.95
2023-02-22T00:30:56.033Z,184.75
2023-02-22T00:33:23.925Z,195.35
2023-02-22T00:35:51.447Z,200.38
2023-02-22T00:38:19.732Z,203.88
2023-02-22T00:40:47.151Z,209.30
2023-02-22T00:43:15.335Z,193.48
2023-02-22T00:45:43.057Z,197.50
2023-02-22T00:48:11.037Z,204.25
2023-02-22T00:50:38.588Z,196.85
2023-02-22T00:53:07.729Z,203.77
2023-02-22T00:55:37.830Z,189.65
2023-02-22T00:58:06.821Z,205.68
2023-02-22T01:00:37.374Z,203.95
2023-02-22T01:03:06.587Z,193.10
2023-02-22T01:05:35.528Z,192.55
2023-02-22T01:08:06.660Z,205.18
2023-02-22T01:10:35.606Z,194.05
2023-02-22T01:13:08.677Z,197.20
2023-02-22T01:15:39.022Z,199.88
2023-02-22T01:18:07.054Z,208.88
2023-02-22T01:20:34.578Z,198.68
2023-02-22T01:23:03.697Z,183.18
2023-02-22T01:25:32.070Z,206.20
2023-02-22T01:28:01.107Z,197.82
2023-02-22T01:30:32.991Z,180.07
2023-02-22T01:33:01.738Z,188.43
2023-02-22T01:35:32.844Z,179.05
2023-02-22T01:38:00.276Z,187.40
2023-02-22T01:40:32.503Z,189.30
2023-02-22T01:45:35.169Z,182.82
2023-02-22T01:48:08.687Z,181.90
2023-02-22T01:50:40.741Z,176.35
2023-02-22T01:53:10.980Z,183.55
2023-02-22T01:55:41.801Z,183.23
2023-02-22T01:58:10.180Z,181.32
2023-02-22T02:00:39.987Z,193.68
2023-02-22T02:03:27.427Z,179.55
2023-02-22T02:05:59.962Z,188.18
2023-02-22T02:08:38.639Z,184.60
2023-02-22T02:11:09.308Z,182.43
2023-02-22T02:13:37.672Z,186.70
2023-02-22T02:16:05.405Z,184.30
2023-02-22T02:18:32.943Z,187.25
2023-02-22T02:21:09.154Z,182.55
2023-02-22T02:24:15.877Z,181.30
2023-02-22T02:27:09.217Z,192.05
2023-02-22T02:29:55.052Z,178.70
2023-02-22T02:32:34.339Z,173.65
2023-02-22T02:35:16.741Z,182.98
2023-02-22T02:37:50.314Z,178.77
2023-02-22T02:40:47.380Z,181.43
2023-02-22T02:43:26.381Z,176.45
2023-02-22T02:46:11.767Z,185.75
2023-02-22T02:48:43.640Z,169.35
2023-02-22T02:51:14.402Z,186.90
2023-02-22T02:53:45.592Z,169.15
2023-02-22T02:56:13.086Z,183.38
2023-02-22T02:58:51.012Z,171.65
2023-02-22T03:01:57.049Z,175.75
2023-02-22T03:04:33.360Z,173.85
2023-02-22T03:07:24.078Z,180.63
2023-02-22T03:10:17.806Z,177.60
2023-02-22T03:12:48.250Z,186.85
2023-02-22T03:15:36.900Z,170.80
2023-02-22T03:18:07.575Z,166.88
2023-02-22T03:20:43.520Z,179.48
2023-02-22T03:23:25.371Z,172.88
2023-02-22T03:26:03.296Z,173.27
2023-02-22T03:28:34.071Z,180.15
2023-02-22T03:31:13.993Z,171.27
2023-02-22T03:34:08.894Z,174.63
2023-02-22T03:36:42.797Z,168.77
2023-02-22T03:39:16.124Z,169.27
2023-02-22T03:41:51.472Z,175.98
2023-02-22T03:44:27.249Z,165.45
2023-02-22T03:46:57.843Z,171.80
2023-02-22T03:49:40.290Z,177.25
2023-02-22T03:52:09.057Z,180.05
2023-02-22T03:54:39.064Z,175.43
2023-02-22T03:57:26.841Z,164.60
2023-02-22T04:00:07.271Z,169.65
2023-02-22T04:02:41.236Z,175.02
2023-02-22T04:07:43.089Z,179.48
2023-02-22T04:10:13.992Z,185.38
2023-02-22T04:12:41.473Z,182.38
2023-02-22T04:15:11.784Z,175.65
2023-02-22T04:17:39.242Z,187.38
2023-02-22T04:20:07.314Z,185.05
2023-02-22T04:22:43.814Z,179.30
2023-02-22T04:25:11.358Z,172.65
2023-02-22T04:27:38.798Z,170.68
2023-02-22T04:30:06.917Z,174.73
2023-02-22T04:32:36.228Z,177.18
2023-02-22T04:35:04.828Z,180.75
2023-02-22T04:37:34.780Z,186.38
2023-02-22T04:40:10.646Z,184.38
2023-02-22T04:42:39.137Z,177.43
2023-02-22T04:45:08.445Z,178.57
2023-02-22T04:47:37.266Z,168.90
2023-02-22T04:50:07.518Z,183.07
2023-02-22T04:52:35.264Z,188.50
2023-02-22T04:55:03.252Z,176.80
2023-02-22T04:57:30.801Z,185.10
2023-02-22T04:59:59.141Z,196.30
2023-02-22T05:02:27.158Z,207.52
2023-02-22T05:04:54.617Z,190.18
2023-02-22T05:07:22.064Z,196.43
2023-02-22T05:09:49.843Z,197.77
2023-02-22T05:12:17.260Z,191.00
2023-02-22T05:14:44.677Z,177.73
2023-02-22T05:17:12.230Z,186.85
2023-02-22T05:19:39.719Z,183.82
2023-02-22T05:22:07.070Z,175.95
2023-02-22T05:24:35.067Z,192.55
2023-02-22T05:27:02.480Z,190.75
2023-02-22T05:29:29.877Z,191.98
2023-02-22T05:31:58.370Z,175.65
2023-02-22T05:34:25.755Z,180.70
2023-02-22T05:36:53.165Z,178.38
2023-02-22T05:39:20.592Z,168.13
2023-02-22T05:41:48.065Z,184.13
2023-02-22T05:44:15.464Z,179.38
2023-02-22T05:46:42.855Z,199.32
2023-02-22T05:49:10.289Z,195.82
2023-02-22T05:51:37.824Z,190.40
2023-02-22T05:54:05.265Z,188.68
2023-02-22T05:56:32.670Z,197.90
2023-02-22T05:59:00.208Z,198.90
2023-02-22T06:01:28.029Z,204.15
2023-02-22T06:03:55.501Z,201.15
2023-02-22T06:06:22.902Z,202.80
2023-02-22T06:08:50.337Z,211.80
2023-02-22T06:11:19.786Z,204.60
2023-02-22T06:13:52.088Z,205.98
2023-02-22T06:16:22.412Z,192.27
2023-02-22T06:18:50.352Z,189.82
2023-02-22T06:21:18.231Z,188.13
2023-02-22T06:23:45.750Z,197.57
2023-02-22T06:26:16.784Z,205.75
2023-02-22T06:28:46.133Z,214.85
2023-02-22T06:31:13.515Z,207.82
2023-02-22T06:33:40.938Z,210.85
2023-02-22T06:36:09.028Z,206.93
2023-02-22T06:38:36.386Z,205.80
2023-02-22T06:41:03.843Z,213.30
2023-02-22T06:43:31.502Z,208.05
2023-02-22T06:45:59.069Z,211.43
2023-02-22T06:48:26.443Z,199.18
2023-02-22T06:50:53.804Z,206.50
2023-02-22T06:53:21.161Z,203.30
2023-02-22T06:55:48.508Z,220.48
2023-02-22T06:58:16.047Z,209.52
2023-02-22T07:00:43.454Z,200.73
2023-02-22T07:03:11.773Z,204.00
2023-02-22T07:05:39.143Z,199.60
2023-02-22T07:08:07.684Z,208.45
2023-02-22T07:10:36.690Z,205.38
2023-02-22T07:13:06.515Z,202.00
2023-02-22T07:15:35.376Z,198.20
2023-02-22T07:18:03.132Z,200.77
2023-02-22T07:20:31.931Z,202.40
2023-02-22T07:22:59.984Z,196.25
2023-02-22T07:25:27.408Z,216.57
2023-02-22T07:27:54.878Z,226.32
2023-02-22T07:30:25.355Z,248.98
2023-02-22T07:32:54.830Z,217.52
2023-02-22T07:35:36.698Z,214.60
2023-02-22T07:38:10.870Z,202.65
2023-02-22T07:40:39.047Z,185.15
2023-02-22T07:43:16.669Z,188.63
2023-02-22T07:45:44.885Z,202.80
2023-02-22T07:48:14.276Z,191.05
2023-02-22T07:50:42.753Z,195.65
2023-02-22T07:53:22.594Z,183.90
2023-02-22T07:55:51.227Z,187.75
2023-02-22T07:58:21.208Z,190.88
2023-02-22T08:00:48.811Z,188.25
2023-02-22T08:03:18.311Z,189.57
2023-02-22T08:05:48.424Z,186.48
2023-02-22T08:08:18.737Z,188.68
2023-02-22T08:10:47.947Z,186.60
2023-02-22T08:13:16.800Z,193.25
2023-02-22T08:15:44.597Z,188.40
2023-02-22T08:18:14.937Z,189.65
2023-02-22T08:20:44.510Z,196.80
2023-02-22T08:23:13.460Z,171.60
2023-02-22T08:25:41.435Z,190.88
2023-02-22T08:28:15.116Z,193.85
2023-02-22T08:30:46.432Z,187.43
2023-02-22T08:33:16.921Z,177.50
2023-02-22T08:35:44.778Z,196.10
2023-02-22T08:38:18.857Z,190.48
2023-02-22T08:40:48.013Z,177.48
2023-02-22T08:43:15.705Z,195.70
2023-02-22T08:45:44.437Z,194.10
2023-02-22T08:48:14.054Z,177.93
2023-02-22T08:50:42.002Z,183.70
2023-02-22T08:53:11.519Z,187.30
2023-02-22T08:55:40.188Z,171.07
2023-02-22T08:58:09.420Z,179.30
2023-02-22T09:00:39.207Z,188.25
2023-02-22T09:03:09.661Z,184.10
2023-02-22T09:05:37.231Z,179.68
2023-02-22T09:08:05.350Z,181.85
2023-02-22T09:10:34.228Z,186.85
2023-02-22T09:13:03.939Z,174.55
2023-02-22T09:15:33.445Z,178.02
2023-02-22T09:18:00.979Z,178.93
2023-02-22T09:20:29.479Z,174.98
2023-02-22T09:22:57.123Z,177.18
2023-02-22T09:25:24.556Z,165.57
2023-02-22T09:27:53.639Z,179.35
2023-02-22T09:30:35.742Z,158.27
2023-02-22T09:33:15.512Z,166.20
2023-02-22T09:35:47.236Z,165.90
2023-02-22T09:38:16.890Z,168.20
2023-02-22T09:40:54.307Z,159.98
2023-02-22T09:43:40.638Z,163.20
2023-02-22T09:46:34.653Z,155.88
2023-02-22T09:49:23.086Z,146.77
2023-02-22T09:52:06.107Z,154.15
2023-02-22T09:54:39.001Z,151.77
2023-02-22T09:57:10.746Z,147.98
2023-02-22T09:59:46.227Z,155.20
2023-02-22T10:02:30.249Z,141.98
2023-02-22T10:05:33.793Z,140.35
2023-02-22T10:08:06.004Z,141.38
2023-02-22T10:10:39.372Z,151.60
2023-02-22T10:13:23.259Z,160.25
2023-02-22T10:15:51.570Z,145.55
2023-02-22T10:18:32.795Z,191.85
2023-02-22T10:21:23.514Z,129.63
2023-02-22T10:24:10.419Z,115.38
2023-02-22T10:26:42.487Z,116.40
2023-02-22T10:29:18.975Z,120.63
2023-02-22T10:31:52.458Z,119.82
2023-02-22T10:34:26.752Z,120.32
2023-02-22T10:37:22.685Z,115.70
2023-02-22T10:39:54.973Z,108.18
2023-02-22T10:42:26.546Z,127.45
2023-02-22T10:44:53.942Z,120.43
2023-02-22T10:47:22.190Z,135.48
2023-02-22T10:49:53.532Z,111.43
2023-02-22T10:52:33.874Z,119.32
2023-02-22T10:55:14.558Z,115.47
2023-02-22T10:57:46.588Z,107.10
2023-02-22T11:00:19.884Z,106.20
2023-02-22T11:02:53.936Z,119.85
2023-02-22T11:05:38.715Z,114.15
2023-02-22T11:08:21.500Z,112.70
2023-02-22T11:10:50.555Z,109.32
2023-02-22T11:13:27.799Z,114.57
2023-02-22T11:16:03.246Z,113.50
2023-02-22T11:18:35.344Z,116.35
2023-02-22T11:21:10.212Z,118.15
2023-02-22T11:23:44.302Z,129.20
2023-02-22T11:26:16.794Z,131.50
2023-02-22T11:28:50.597Z,120.85
2023-02-22T11:31:27.990Z,125.30
2023-02-22T11:34:02.081Z,127.80
2023-02-22T11:36:40.907Z,122.53
2023-02-22T11:39:43.780Z,120.55
2023-02-22T11:45:21.195Z,116.18
2023-02-22T11:47:52.940Z,125.65
2023-02-22T11:50:37.481Z,122.15
2023-02-22T11:53:22.058Z,134.15
2023-02-22T11:56:14.039Z,122.13
2023-02-22T11:58:48.087Z,125.60
2023-02-22T12:01:44.100Z,126.90
2023-02-22T12:04:22.452Z,124.55
2023-02-22T12:07:15.522Z,126.57
2023-02-22T12:09:48.914Z,129.48
2023-02-22T12:12:58.345Z,123.88
2023-02-22T12:15:31.627Z,131.32
2023-02-22T12:18:02.086Z,128.70
2023-02-22T12:20:43.746Z,128.48
2023-02-22T12:23:23.039Z,125.63
2023-02-22T12:26:05.287Z,131.75
2023-02-22T12:28:40.655Z,128.15
2023-02-22T12:31:33.993Z,124.70
2023-02-22T12:34:09.892Z,126.35
2023-02-22T12:36:51.775Z,125.85
2023-02-22T12:39:53.184Z,120.32
2023-02-22T12:42:30.148Z,119.25
2023-02-22T12:45:06.825Z,123.03
2023-02-22T12:47:45.619Z,131.45
2023-02-22T12:50:27.251Z,119.07
2023-02-22T12:53:15.076Z,123.70
2023-02-22T12:55:58.097Z,124.50
2023-02-22T12:58:32.310Z,132.07
2023-02-22T13:01:08.121Z,131.80
2023-02-22T13:03:38.232Z,121.00
2023-02-22T13:06:33.513Z,121.35
2023-02-22T13:09:37.372Z,139.57
2023-02-22T13:12:12.736Z,124.85
2023-02-22T13:14:54.747Z,129.77
2023-02-22T13:17:47.454Z,131.75
2023-02-22T13:23:19.260Z,122.97
2023-02-22T13:25:58.724Z,119.05
2023-02-22T13:28:43.875Z,123.63
2023-02-22T13:31:30.374Z,129.35
2023-02-22T13:34:13.179Z,129.10
2023-02-22T13:37:08.500Z,123.90
2023-02-22T13:39:38.891Z,119.60
2023-02-22T13:42:27.962Z,130.07
2023-02-22T13:45:09.148Z,131.25
2023-02-22T13:48:00.933Z,132.82
2023-02-22T13:50:42.678Z,127.63
2023-02-22T13:53:18.207Z,122.88
2023-02-22T13:55:52.932Z,126.80
2023-02-22T13:58:21.039Z,118.90
2023-02-22T14:00:59.557Z,130.07
2023-02-22T14:03:36.399Z,120.97
2023-02-22T14:06:05.836Z,116.53
2023-02-22T14:08:33.803Z,119.93
2023-02-22T14:11:06.751Z,123.45
2023-02-22T14:14:00.907Z,121.50
2023-02-22T14:16:33.904Z,124.32
2023-02-22T14:19:13.354Z,132.60
2023-02-22T14:22:03.468Z,123.38
2023-02-22T14:24:48.042Z,124.22
2023-02-22T14:27:17.651Z,122.25
2023-02-22T14:30:00.786Z,124.70
2023-02-22T14:32:32.865Z,121.63
2023-02-22T14:35:27.357Z,127.97
2023-02-22T14:37:59.654Z,116.70
2023-02-22T14:40:32.418Z,124.75
2023-02-22T14:43:19.885Z,127.68
2023-02-22T14:45:53.002Z,124.72
2023-02-22T14:48:43.167Z,130.25
2023-02-22T14:51:23.226Z,129.30
2023-02-22T14:54:13.267Z,121.82
2023-02-22T14:56:49.179Z,127.28
2023-02-22T14:59:27.492Z,121.13
2023-02-22T15:02:13.059Z,122.57
2023-02-22T15:04:44.142Z,130.60
2023-02-22T15:07:27.868Z,117.15
2023-02-22T15:10:17.677Z,120.20
2023-02-22T15:13:08.579Z,130.20
2023-02-22T15:15:47.533Z,131.82
2023-02-22T15:18:22.050Z,125.05
2023-02-22T15:20:56.316Z,123.00
2023-02-22T15:23:41.559Z,137.05
2023-02-22T15:26:22.049Z,119.20
2023-02-22T15:28:57.713Z,126.18
2023-02-22T15:31:36.178Z,125.97
2023-02-22T15:34:28.509Z,129.20
2023-02-22T15:36:57.977Z,132.63
2023-02-22T15:39:29.382Z,116.32
2023-02-22T15:42:03.872Z,127.87
2023-02-22T15:44:36.325Z,130.82
2023-02-22T15:47:04.521Z,123.30
2023-02-22T15:49:37.017Z,132.32
2023-02-22T15:52:24.222Z,123.97
2023-02-22T15:54:52.778Z,126.82
2023-02-22T15:57:22.387Z,126.70
2023-02-22T15:59:55.887Z,128.02
2023-02-22T16:02:39.243Z,138.70
2023-02-22T16:05:13.400Z,141.20
2023-02-22T16:07:48.601Z,131.65
2023-02-22T16:10:29.832Z,145.02
2023-02-22T16:13:05.896Z,156.80
2023-02-22T16:15:34.079Z,136.65
2023-02-22T16:18:24.605Z,135.10
2023-02-22T16:21:00.100Z,126.88
2023-02-22T16:23:28.934Z,145.30
2023-02-22T16:26:19.054Z,148.35
2023-02-22T16:29:00.654Z,140.48
2023-02-22T16:31:37.570Z,154.70
2023-02-22T16:34:08.143Z,153.40
2023-02-22T16:36:44.935Z,152.07
2023-02-22T16:39:31.364Z,147.35
2023-02-22T16:42:01.623Z,141.38
2023-02-22T16:44:29.583Z,147.43
2023-02-22T16:47:00.863Z,149.27
2023-02-22T16:49:28.316Z,147.05
2023-02-22T16:52:06.632Z,157.57
2023-02-22T16:54:43.546Z,155.82
2023-02-22T16:57:19.529Z,157.10
2023-02-22T16:59:50.169Z,146.23
2023-02-22T17:02:18.019Z,146.55
2023-02-22T17:04:51.171Z,153.15
2023-02-22T17:07:29.927Z,162.75
2023-02-22T17:10:00.674Z,167.93
2023-02-22T17:12:30.235Z,170.40
2023-02-22T17:14:57.755Z,181.23
2023-02-22T17:17:26.466Z,168.10
2023-02-22T17:19:54.980Z,179.70
2023-02-22T17:22:22.852Z,182.30
2023-02-22T17:24:50.242Z,186.50
2023-02-22T17:27:17.611Z,186.15
2023-02-22T17:29:45.197Z,195.90
2023-02-22T17:32:12.893Z,188.35
2023-02-22T17:34:40.746Z,189.15
2023-02-22T17:37:08.125Z,191.07
2023-02-22T17:39:35.543Z,215.18
2023-02-22T17:42:03.010Z,190.75
2023-02-22T17:44:30.435Z,202.27
2023-02-22T17:46:57.815Z,211.77
2023-02-22T17:49:25.220Z,223.50
2023-02-22T17:51:53.209Z,217.95
2023-02-22T17:54:20.680Z,204.25
2023-02-22T17:56:48.112Z,202.25
2023-02-22T17:59:15.484Z,199.90
2023-02-22T18:01:44.021Z,215.50
2023-02-22T18:04:11.786Z,204.48
2023-02-22T18:06:40.055Z,196.13
2023-02-22T18:09:10.770Z,198.35
2023-02-22T18:11:40.022Z,189.60
2023-02-22T18:14:10.171Z,195.55
2023-02-22T18:16:38.955Z,215.10
2023-02-22T18:19:06.485Z,202.50
2023-02-22T18:21:33.960Z,204.35
2023-02-22T18:24:01.392Z,212.60
2023-02-22T18:26:29.181Z,208.27
2023-02-22T18:28:56.956Z,197.68
2023-02-22T18:31:24.473Z,185.18
2023-02-22T18:33:53.484Z,242.25
2023-02-22T18:36:23.046Z,283.98
2023-02-22T18:38:53.052Z,261.30
2023-02-22T18:41:25.390Z,236.30
2023-02-22T18:43:55.593Z,195.38
2023-02-22T18:46:24.686Z,194.05
2023-02-22T18:48:54.558Z,193.65
2023-02-22T18:51:22.319Z,191.10
2023-02-22T18:53:50.785Z,195.63
2023-02-22T18:56:22.525Z,250.70
2023-02-22T18:58:54.420Z,255.27
2023-02-22T19:01:22.450Z,300.40
2023-02-22T19:03:51.581Z,233.88
2023-02-22T19:06:21.817Z,211.80
2023-02-22T19:08:50.643Z,218.13
2023-02-22T19:11:21.869Z,270.17
2023-02-22T19:13:51.871Z,233.60
2023-02-22T19:16:22.240Z,236.40
2023-02-22T19:18:52.556Z,238.23
2023-02-22T19:21:20.974Z,234.20
2023-02-22T19:23:49.367Z,212.70
2023-02-22T19:26:24.080Z,219.35
2023-02-22T19:28:56.540Z,216.85
2023-02-22T19:33:55.215Z,210.85
2023-02-22T19:36:23.296Z,207.05
2023-02-22T19:38:51.600Z,213.57
2023-02-22T19:41:21.892Z,216.30
2023-02-22T19:43:51.357Z,220.48
2023-02-22T19:46:24.706Z,204.23
2023-02-22T19:48:53.719Z,205.80
2023-02-22T19:51:25.609Z,198.13
2023-02-22T19:53:54.418Z,199.45
2023-02-22T19:56:27.167Z,206.27
2023-02-22T19:58:56.561Z,200.57
2023-02-22T20:01:25.150Z,206.82
2023-02-22T20:03:54.996Z,200.48
2023-02-22T20:06:27.220Z,250.70
2023-02-22T20:08:58.187Z,227.32
2023-02-22T20:11:28.053Z,219.52
2023-02-22T20:13:57.264Z,211.27
2023-02-22T20:16:26.877Z,213.30
2023-02-22T20:18:56.795Z,219.30
2023-02-22T20:21:37.469Z,220.18
2023-02-22T20:24:09.220Z,211.13
2023-02-22T20:29:09.218Z,211.18
2023-02-22T20:31:38.018Z,218.60
2023-02-22T20:34:09.760Z,214.68
2023-02-22T20:36:40.099Z,235.85
2023-02-22T20:39:13.282Z,212.77
2023-02-22T20:41:43.069Z,198.75
2023-02-22T20:44:18.690Z,211.93
2023-02-22T20:46:46.988Z,214.88
2023-02-22T20:49:19.412Z,219.20
2023-02-22T20:51:48.399Z,231.13
2023-02-22T20:54:17.073Z,229.45
2023-02-22T20:56:45.835Z,219.75
2023-02-22T20:59:14.945Z,202.10
2023-02-22T21:01:42.590Z,206.70
2023-02-22T21:04:11.141Z,223.93
2023-02-22T21:06:39.711Z,213.43
2023-02-22T21:09:11.823Z,209.38
2023-02-22T21:11:40.137Z,201.65
2023-02-22T21:14:07.704Z,205.85
2023-02-22T21:16:37.167Z,207.43
2023-02-22T21:19:07.640Z,219.95
2023-02-22T21:21:36.042Z,208.40
2023-02-22T21:24:03.520Z,215.40
2023-02-22T21:26:33.904Z,207.50
2023-02-22T21:29:05.045Z,206.50
2023-02-22T21:31:34.088Z,202.35
2023-02-22T21:34:02.307Z,202.85
2023-02-22T21:36:32.066Z,206.50
2023-02-22T21:39:01.697Z,199.82
2023-02-22T21:41:31.088Z,282.33
2023-02-22T21:43:59.881Z,222.10
2023-02-22T21:46:29.513Z,208.50
2023-02-22T21:48:58.813Z,209.05
2023-02-22T21:51:33.839Z,198.48
2023-02-22T21:54:03.575Z,220.43
2023-02-22T21:56:35.134Z,202.88
2023-02-22T21:59:06.106Z,189.98
2023-02-22T22:01:36.659Z,177.73
2023-02-22T22:04:05.166Z,192.50
2023-02-22T22:06:34.558Z,185.10
2023-02-22T22:09:05.275Z,182.93
2023-02-22T22:11:32.839Z,189.18
2023-02-22T22:14:00.507Z,196.55
2023-02-22T22:16:33.078Z,199.32
2023-02-22T22:19:00.498Z,200.88
2023-02-22T22:21:27.978Z,192.65
2023-02-22T22:23:56.266Z,196.93
2023-02-22T22:26:25.436Z,188.45
2023-02-22T22:28:55.932Z,207.55
2023-02-22T22:31:26.127Z,183.60
2023-02-22T22:33:56.312Z,237.32
2023-02-22T22:36:26.839Z,200.88
2023-02-22T22:38:57.635Z,191.65
2023-02-22T22:41:28.177Z,189.90
2023-02-22T22:43:56.355Z,189.55
2023-02-22T22:46:23.807Z,201.55
2023-02-22T22:48:51.272Z,198.80
2023-02-22T22:51:20.638Z,189.27
2023-02-22T22:53:50.767Z,192.10
2023-02-22T22:56:21.352Z,184.05
2023-02-22T22:58:51.097Z,190.40
2023-02-22T23:01:26.902Z,190.60
2023-02-22T23:03:59.767Z,200.07
2023-02-22T23:06:33.466Z,186.00
2023-02-22T23:09:19.057Z,182.75
2023-02-22T23:11:50.938Z,188.30
2023-02-22T23:14:21.045Z,191.25
2023-02-22T23:16:50.149Z,198.38
2023-02-22T23:19:19.586Z,179.18
2023-02-22T23:21:48.637Z,183.98
2023-02-22T23:24:21.303Z,188.07
2023-02-22T23:26:48.982Z,194.70
2023-02-22T23:29:22.836Z,191.18
2023-02-22T23:31:50.915Z,194.93
2023-02-22T23:34:21.204Z,191.35
2023-02-22T23:36:50.126Z,176.10
2023-02-22T23:39:22.467Z,187.55
2023-02-22T23:41:51.244Z,193.52
2023-02-22T23:44:19.846Z,201.55
2023-02-22T23:46:48.915Z,196.50
2023-02-22T23:49:20.778Z,198.65
2023-02-22T23:51:49.038Z,185.02
2023-02-22T23:54:19.969Z,205.27
2023-02-22T23:56:56.844Z,180.98
2023-02-22T23:59:26.908Z,192.43
